createdAt,value
2018-12-09T00:00:31.602Z,1003.43
2018-12-09T00:01:31.393Z,1003.42
2018-12-09T00:02:31.863Z,1003.43
2018-12-09T00:03:31.622Z,1003.3
2018-12-09T00:04:31.469Z,1003.31
2018-12-09T00:05:31.654Z,1003.31
2018-12-09T00:06:31.793Z,1003.32
2018-12-09T00:07:31.534Z,1003.27
2018-12-09T00:08:31.491Z,1003.29
2018-12-09T00:09:31.878Z,1003.23
2018-12-09T00:10:31.659Z,1003.28
2018-12-09T00:11:31.504Z,1003.31
2018-12-09T00:12:31.666Z,1003.27
2018-12-09T00:13:31.547Z,1003.35
2018-12-09T00:14:31.574Z,1003.25
2018-12-09T00:15:31.436Z,1003.33
2018-12-09T00:16:31.835Z,1003.31
2018-12-09T00:17:31.773Z,1003.31
2018-12-09T00:18:31.785Z,1003.27
2018-12-09T00:19:31.976Z,1003.24
2018-12-09T00:20:31.923Z,1003.21
2018-12-09T00:21:31.747Z,1003.27
2018-12-09T00:22:31.464Z,1003.26
2018-12-09T00:23:31.492Z,1003.29
2018-12-09T00:24:31.567Z,1003.22
2018-12-09T00:25:31.739Z,1003.24
2018-12-09T00:26:31.359Z,1003.24
2018-12-09T00:27:31.535Z,1003.22
2018-12-09T00:28:31.842Z,1003.28
2018-12-09T00:29:31.660Z,1003.21
2018-12-09T00:30:31.455Z,1003.14
2018-12-09T00:31:32.021Z,1003.08
2018-12-09T00:32:31.875Z,1002.99
2018-12-09T00:33:31.679Z,1003.15
2018-12-09T00:34:31.522Z,1003.13
2018-12-09T00:35:31.696Z,1003.13
2018-12-09T00:36:31.971Z,1003.12
2018-12-09T00:37:32.015Z,1003.12
2018-12-09T00:38:31.693Z,1003.09
2018-12-09T00:39:31.713Z,1003.15
2018-12-09T00:40:31.825Z,1003.16
2018-12-09T00:41:31.623Z,1003.17
2018-12-09T00:42:31.544Z,1003.21
2018-12-09T00:43:31.938Z,1003.16
2018-12-09T00:44:31.747Z,1003.15
2018-12-09T00:45:31.953Z,1003.12
2018-12-09T00:46:32.070Z,1003.17
2018-12-09T00:47:31.698Z,1003.23
2018-12-09T00:48:31.374Z,1003.32
2018-12-09T00:49:31.585Z,1003.3
2018-12-09T00:50:31.512Z,1003.26
2018-12-09T00:51:31.586Z,1003.28
2018-12-09T00:52:31.513Z,1003.29
2018-12-09T00:53:31.298Z,1003.28
2018-12-09T00:54:31.790Z,1003.21
2018-12-09T00:55:31.448Z,1003.18
2018-12-09T00:56:31.641Z,1003.18
2018-12-09T00:57:31.608Z,1003.15
2018-12-09T00:58:31.689Z,1003.09
2018-12-09T00:59:31.765Z,1003.13
2018-12-09T01:00:31.652Z,1003.1
2018-12-09T01:01:32.228Z,1003.03
2018-12-09T01:02:31.541Z,1003.11
2018-12-09T01:03:31.653Z,1003.11
2018-12-09T01:04:31.698Z,1003.01
2018-12-09T01:05:31.603Z,1003.04
2018-12-09T01:06:31.852Z,1003.06
2018-12-09T01:07:32.027Z,1003.02
2018-12-09T01:08:32.343Z,1002.99
2018-12-09T01:09:31.442Z,1002.89
2018-12-09T01:10:31.947Z,1002.91
2018-12-09T01:11:31.592Z,1002.87
2018-12-09T01:12:31.912Z,1002.86
2018-12-09T01:13:31.590Z,1002.92
2018-12-09T01:14:31.577Z,1002.83
2018-12-09T01:15:31.852Z,1002.81
2018-12-09T01:16:31.323Z,1002.82
2018-12-09T01:17:31.800Z,1002.84
2018-12-09T01:18:31.954Z,1002.88
2018-12-09T01:19:31.991Z,1002.82
2018-12-09T01:20:31.516Z,1002.87
2018-12-09T01:21:31.807Z,1002.81
2018-12-09T01:22:31.762Z,1002.82
2018-12-09T01:23:31.847Z,1002.75
2018-12-09T01:24:31.359Z,1002.76
2018-12-09T01:25:31.747Z,1002.77
2018-12-09T01:26:31.677Z,1002.69
2018-12-09T01:27:31.810Z,1002.74
2018-12-09T01:28:31.597Z,1002.79
2018-12-09T01:29:32.323Z,1002.75
2018-12-09T01:30:31.623Z,1002.7
2018-12-09T01:31:31.684Z,1002.74
2018-12-09T01:32:31.911Z,1002.76
2018-12-09T01:33:31.584Z,1002.71
2018-12-09T01:34:31.375Z,1002.73
2018-12-09T01:35:31.662Z,1002.7
2018-12-09T01:36:31.967Z,1002.72
2018-12-09T01:37:31.490Z,1002.73
2018-12-09T01:38:31.361Z,1002.65
2018-12-09T01:39:31.855Z,1002.62
2018-12-09T01:40:31.861Z,1002.7
2018-12-09T01:41:31.410Z,1002.71
2018-12-09T01:42:31.737Z,1002.68
2018-12-09T01:43:32.253Z,1002.76
2018-12-09T01:44:31.539Z,1002.68
2018-12-09T01:45:31.312Z,1002.67
2018-12-09T01:46:31.799Z,1002.64
2018-12-09T01:47:31.590Z,1002.66
2018-12-09T01:48:31.946Z,1002.62
2018-12-09T01:49:32.004Z,1002.71
2018-12-09T01:50:31.457Z,1002.63
2018-12-09T01:51:31.615Z,1002.6
2018-12-09T01:52:31.393Z,1002.59
2018-12-09T01:53:31.746Z,1002.67
2018-12-09T01:54:31.587Z,1002.57
2018-12-09T01:55:31.862Z,1002.53
2018-12-09T01:56:31.874Z,1002.5
2018-12-09T01:57:31.844Z,1002.39
2018-12-09T01:58:32.633Z,1002.43
2018-12-09T01:59:31.712Z,1002.38
2018-12-09T02:00:31.467Z,1002.45
2018-12-09T02:01:31.359Z,1002.37
2018-12-09T02:02:31.414Z,1002.33
2018-12-09T02:03:31.552Z,1002.43
2018-12-09T02:04:31.748Z,1002.47
2018-12-09T02:05:31.934Z,1002.39
2018-12-09T02:06:31.809Z,1002.51
2018-12-09T02:07:31.842Z,1002.59
2018-12-09T02:08:32.498Z,1002.5
2018-12-09T02:09:31.676Z,1002.54
2018-12-09T02:10:32.296Z,1002.41
2018-12-09T02:11:31.355Z,1002.41
2018-12-09T02:12:31.782Z,1002.39
2018-12-09T02:13:31.608Z,1002.42
2018-12-09T02:14:31.489Z,1002.4
2018-12-09T02:15:31.590Z,1002.48
2018-12-09T02:16:31.263Z,1002.49
2018-12-09T02:17:31.720Z,1002.43
2018-12-09T02:18:32.061Z,1002.33
2018-12-09T02:19:31.931Z,1002.21
2018-12-09T02:20:31.769Z,1002.18
2018-12-09T02:21:31.482Z,1002.08
2018-12-09T02:22:31.501Z,1001.99
2018-12-09T02:23:32.403Z,1002.1
2018-12-09T02:24:31.529Z,1002.15
2018-12-09T02:25:31.654Z,1002.18
2018-12-09T02:26:31.394Z,1002.3
2018-12-09T02:27:31.753Z,1002.28
2018-12-09T02:28:32.235Z,1002.4
2018-12-09T02:29:31.913Z,1002.45
2018-12-09T02:30:31.862Z,1002.34
2018-12-09T02:31:31.515Z,1002.34
2018-12-09T02:32:31.588Z,1002.26
2018-12-09T02:33:31.406Z,1002.27
2018-12-09T02:34:31.735Z,1002.17
2018-12-09T02:35:31.588Z,1002.26
2018-12-09T02:36:31.773Z,1002.35
2018-12-09T02:37:31.452Z,1002.35
2018-12-09T02:38:32.160Z,1002.38
2018-12-09T02:39:31.737Z,1002.47
2018-12-09T02:40:31.383Z,1002.54
2018-12-09T02:41:31.795Z,1002.56
2018-12-09T02:42:31.421Z,1002.6
2018-12-09T02:43:31.745Z,1002.65
2018-12-09T02:44:31.358Z,1002.58
2018-12-09T02:45:31.519Z,1002.65
2018-12-09T02:46:31.432Z,1002.66
2018-12-09T02:47:31.550Z,1002.62
2018-12-09T02:48:31.569Z,1002.73
2018-12-09T02:49:31.422Z,1002.75
2018-12-09T02:50:31.958Z,1002.83
2018-12-09T02:51:31.630Z,1002.85
2018-12-09T02:52:32.069Z,1002.92
2018-12-09T02:53:31.907Z,1002.82
2018-12-09T02:54:31.826Z,1002.84
2018-12-09T02:55:31.273Z,1002.97
2018-12-09T02:56:31.815Z,1002.85
2018-12-09T02:57:32.344Z,1002.87
2018-12-09T02:58:32.216Z,1002.76
2018-12-09T02:59:32.067Z,1002.75
2018-12-09T03:00:31.990Z,1002.81
2018-12-09T03:01:32.020Z,1002.83
2018-12-09T03:02:31.658Z,1002.85
2018-12-09T03:03:31.501Z,1002.8
2018-12-09T03:04:31.319Z,1002.82
2018-12-09T03:05:31.503Z,1002.89
2018-12-09T03:06:31.940Z,1002.79
2018-12-09T03:07:32.110Z,1002.82
2018-12-09T03:08:31.421Z,1002.83
2018-12-09T03:09:31.844Z,1002.82
2018-12-09T03:10:31.679Z,1002.82
2018-12-09T03:11:31.480Z,1002.69
2018-12-09T03:12:31.354Z,1002.61
2018-12-09T03:13:31.634Z,1002.59
2018-12-09T03:14:32.118Z,1002.61
2018-12-09T03:15:31.373Z,1002.6
2018-12-09T03:16:31.918Z,1002.58
2018-12-09T03:17:32.485Z,1002.62
2018-12-09T03:18:31.745Z,1002.8
2018-12-09T03:19:31.756Z,1002.92
2018-12-09T03:20:31.374Z,1002.96
2018-12-09T03:21:31.787Z,1002.92
2018-12-09T03:22:31.669Z,1002.91
2018-12-09T03:23:31.961Z,1002.92
2018-12-09T03:24:31.336Z,1002.86
2018-12-09T03:25:31.517Z,1002.8
2018-12-09T03:26:32.341Z,1002.86
2018-12-09T03:27:31.718Z,1002.9
2018-12-09T03:28:31.809Z,1002.96
2018-12-09T03:29:31.348Z,1002.96
2018-12-09T03:30:31.905Z,1002.99
2018-12-09T03:31:31.489Z,1002.93
2018-12-09T03:32:31.476Z,1003.01
2018-12-09T03:33:31.970Z,1002.97
2018-12-09T03:34:31.461Z,1002.88
2018-12-09T03:35:31.495Z,1002.8
2018-12-09T03:36:32.109Z,1002.84
2018-12-09T03:37:31.823Z,1002.82
2018-12-09T03:38:31.809Z,1002.97
2018-12-09T03:39:31.490Z,1003.02
2018-12-09T03:40:31.288Z,1003.11
2018-12-09T03:41:31.487Z,1003.04
2018-12-09T03:42:31.596Z,1002.89
2018-12-09T03:43:31.459Z,1003
2018-12-09T03:44:32.044Z,1002.95
2018-12-09T03:45:31.901Z,1002.98
2018-12-09T03:46:31.544Z,1002.95
2018-12-09T03:47:31.744Z,1002.93
2018-12-09T03:48:31.738Z,1002.96
2018-12-09T03:49:31.774Z,1002.96
2018-12-09T03:50:31.376Z,1003
2018-12-09T03:51:31.741Z,1003.04
2018-12-09T03:52:31.577Z,1002.99
2018-12-09T03:53:31.711Z,1002.88
2018-12-09T03:54:31.882Z,1002.95
2018-12-09T03:55:32.243Z,1002.93
2018-12-09T03:56:31.883Z,1003
2018-12-09T03:57:31.497Z,1003.04
2018-12-09T03:58:31.427Z,1003.06
2018-12-09T03:59:31.385Z,1003.02
2018-12-09T04:00:31.559Z,1003.02
2018-12-09T04:01:31.952Z,1002.97
2018-12-09T04:02:31.392Z,1003.07
2018-12-09T04:03:31.489Z,1003.05
2018-12-09T04:04:31.898Z,1003
2018-12-09T04:05:31.674Z,1003
2018-12-09T04:06:31.397Z,1002.93
2018-12-09T04:07:31.546Z,1002.85
2018-12-09T04:08:31.277Z,1002.99
2018-12-09T04:09:31.501Z,1003
2018-12-09T04:10:31.549Z,1003.02
2018-12-09T04:11:31.371Z,1003.02
2018-12-09T04:12:32.036Z,1003.03
2018-12-09T04:13:31.587Z,1003.01
2018-12-09T04:14:32.279Z,1003.12
2018-12-09T04:15:31.595Z,1003.08
2018-12-09T04:16:31.893Z,1003.05
2018-12-09T04:17:31.555Z,1003.06
2018-12-09T04:18:31.446Z,1003.08
2018-12-09T04:19:31.574Z,1003.03
2018-12-09T04:20:31.356Z,1003.13
2018-12-09T04:21:31.503Z,1003.05
2018-12-09T04:22:32.103Z,1003.01
2018-12-09T04:23:32.753Z,1003
2018-12-09T04:24:31.910Z,1003.05
2018-12-09T04:25:31.500Z,1003.16
2018-12-09T04:26:32.232Z,1003.04
2018-12-09T04:27:31.657Z,1003.14
2018-12-09T04:28:31.740Z,1003.15
2018-12-09T04:29:32.106Z,1003.17
2018-12-09T04:30:31.484Z,1003.25
2018-12-09T04:31:31.498Z,1003.19
2018-12-09T04:32:31.761Z,1003.21
2018-12-09T04:33:31.464Z,1003.14
2018-12-09T04:34:31.579Z,1003.15
2018-12-09T04:35:31.429Z,1003.11
2018-12-09T04:36:31.866Z,1003.13
2018-12-09T04:37:31.493Z,1003.18
2018-12-09T04:38:32.000Z,1003.23
2018-12-09T04:39:31.447Z,1003.18
2018-12-09T04:40:31.665Z,1003.24
2018-12-09T04:41:31.401Z,1003.29
2018-12-09T04:42:32.478Z,1003.32
2018-12-09T04:43:31.286Z,1003.35
2018-12-09T04:44:31.416Z,1003.31
2018-12-09T04:45:31.469Z,1003.3
2018-12-09T04:46:31.831Z,1003.3
2018-12-09T04:47:31.970Z,1003.32
2018-12-09T04:48:31.426Z,1003.25
2018-12-09T04:49:31.420Z,1003.29
2018-12-09T04:50:31.684Z,1003.31
2018-12-09T04:51:31.341Z,1003.33
2018-12-09T04:52:32.652Z,1003.36
2018-12-09T04:53:31.279Z,1003.39
2018-12-09T04:54:31.380Z,1003.4
2018-12-09T04:55:31.618Z,1003.44
2018-12-09T04:56:31.469Z,1003.37
2018-12-09T04:57:31.566Z,1003.38
2018-12-09T04:58:31.684Z,1003.4
2018-12-09T04:59:31.392Z,1003.5
2018-12-09T05:00:31.250Z,1003.4
2018-12-09T05:01:31.796Z,1003.48
2018-12-09T05:02:31.300Z,1003.46
2018-12-09T05:03:31.507Z,1003.49
2018-12-09T05:04:31.737Z,1003.49
2018-12-09T05:05:31.491Z,1003.52
2018-12-09T05:06:31.552Z,1003.61
2018-12-09T05:07:31.752Z,1003.57
2018-12-09T05:08:31.690Z,1003.53
2018-12-09T05:09:31.775Z,1003.56
2018-12-09T05:10:31.432Z,1003.58
2018-12-09T05:11:31.931Z,1003.5
2018-12-09T05:12:31.710Z,1003.51
2018-12-09T05:13:31.930Z,1003.57
2018-12-09T05:14:31.840Z,1003.67
2018-12-09T05:15:31.832Z,1003.57
2018-12-09T05:16:31.632Z,1003.65
2018-12-09T05:17:31.479Z,1003.65
2018-12-09T05:18:31.854Z,1003.71
2018-12-09T05:19:31.423Z,1003.76
2018-12-09T05:20:32.136Z,1003.75
2018-12-09T05:21:31.374Z,1003.78
2018-12-09T05:22:31.456Z,1003.84
2018-12-09T05:23:31.837Z,1003.82
2018-12-09T05:24:31.666Z,1003.93
2018-12-09T05:25:31.627Z,1003.93
2018-12-09T05:26:31.741Z,1003.96
2018-12-09T05:27:31.420Z,1003.95
2018-12-09T05:28:31.228Z,1003.94
2018-12-09T05:29:31.894Z,1003.88
2018-12-09T05:30:31.851Z,1003.89
2018-12-09T05:31:31.517Z,1003.92
2018-12-09T05:32:31.715Z,1004
2018-12-09T05:33:31.363Z,1004.02
2018-12-09T05:34:31.519Z,1003.96
2018-12-09T05:35:31.310Z,1004.06
2018-12-09T05:36:31.574Z,1004.08
2018-12-09T05:37:32.163Z,1004.12
2018-12-09T05:38:31.606Z,1004.08
2018-12-09T05:39:31.295Z,1004.12
2018-12-09T05:40:31.489Z,1004.12
2018-12-09T05:41:31.442Z,1004.21
2018-12-09T05:42:31.372Z,1004.23
2018-12-09T05:43:32.146Z,1004.32
2018-12-09T05:44:31.643Z,1004.3
2018-12-09T05:45:31.421Z,1004.24
2018-12-09T05:46:31.392Z,1004.23
2018-12-09T05:47:31.473Z,1004.21
2018-12-09T05:48:32.132Z,1004.13
2018-12-09T05:49:31.278Z,1004.22
2018-12-09T05:50:31.553Z,1004.22
2018-12-09T05:51:31.403Z,1004.19
2018-12-09T05:52:31.842Z,1004.18
2018-12-09T05:53:31.299Z,1004.2
2018-12-09T05:54:31.635Z,1004.21
2018-12-09T05:55:31.397Z,1004.39
2018-12-09T05:56:31.274Z,1004.23
2018-12-09T05:57:32.606Z,1004.29
2018-12-09T05:58:31.337Z,1004.25
2018-12-09T05:59:31.866Z,1004.42
2018-12-09T06:00:31.474Z,1004.36
2018-12-09T06:01:31.461Z,1004.39
2018-12-09T06:02:31.840Z,1004.37
2018-12-09T06:03:31.307Z,1004.41
2018-12-09T06:04:31.708Z,1004.42
2018-12-09T06:05:31.591Z,1004.43
2018-12-09T06:06:32.262Z,1004.47
2018-12-09T06:07:31.637Z,1004.48
2018-12-09T06:08:31.491Z,1004.52
2018-12-09T06:09:31.460Z,1004.59
2018-12-09T06:10:31.384Z,1004.64
2018-12-09T06:11:31.908Z,1004.62
2018-12-09T06:12:31.302Z,1004.74
2018-12-09T06:13:31.241Z,1004.65
2018-12-09T06:14:31.676Z,1004.68
2018-12-09T06:15:31.469Z,1004.68
2018-12-09T06:16:31.294Z,1004.72
2018-12-09T06:17:31.804Z,1004.77
2018-12-09T06:18:31.486Z,1004.78
2018-12-09T06:19:31.285Z,1004.81
2018-12-09T06:20:31.834Z,1004.79
2018-12-09T06:21:31.215Z,1004.9
2018-12-09T06:22:31.530Z,1004.86
2018-12-09T06:23:31.588Z,1004.92
2018-12-09T06:24:31.414Z,1004.87
2018-12-09T06:25:32.504Z,1004.93
2018-12-09T06:26:31.747Z,1004.94
2018-12-09T06:27:31.743Z,1004.91
2018-12-09T06:28:31.214Z,1004.96
2018-12-09T06:29:32.077Z,1004.93
2018-12-09T06:30:31.359Z,1004.94
2018-12-09T06:31:31.566Z,1004.98
2018-12-09T06:32:31.500Z,1004.94
2018-12-09T06:33:31.531Z,1005.04
2018-12-09T06:34:32.259Z,1005.09
2018-12-09T06:35:31.310Z,1005.06
2018-12-09T06:36:31.723Z,1005.01
2018-12-09T06:37:31.747Z,1005.09
2018-12-09T06:38:31.723Z,1005.17
2018-12-09T06:39:31.774Z,1005.22
2018-12-09T06:40:31.844Z,1005.17
2018-12-09T06:41:31.425Z,1005.09
2018-12-09T06:42:31.889Z,1005.12
2018-12-09T06:43:31.733Z,1005.15
2018-12-09T06:44:31.687Z,1005.1
2018-12-09T06:45:31.653Z,1005.09
2018-12-09T06:46:31.503Z,1005.09
2018-12-09T06:47:31.718Z,1005.11
2018-12-09T06:48:31.788Z,1005.23
2018-12-09T06:49:31.437Z,1005.23
2018-12-09T06:50:31.835Z,1005.28
2018-12-09T06:51:32.006Z,1005.14
2018-12-09T06:52:31.393Z,1005.13
2018-12-09T06:53:31.837Z,1005.09
2018-12-09T06:54:31.396Z,1005.09
2018-12-09T06:55:31.616Z,1005.08
2018-12-09T06:56:31.251Z,1005.17
2018-12-09T06:57:31.892Z,1005.09
2018-12-09T06:58:31.604Z,1005.06
2018-12-09T06:59:31.797Z,1005.04
2018-12-09T07:00:31.607Z,1005.17
2018-12-09T07:01:32.050Z,1005.15
2018-12-09T07:02:31.724Z,1005.11
2018-12-09T07:03:31.596Z,1005.21
2018-12-09T07:04:31.557Z,1005.24
2018-12-09T07:05:31.427Z,1005.31
2018-12-09T07:06:31.638Z,1005.42
2018-12-09T07:07:31.401Z,1005.42
2018-12-09T07:08:31.587Z,1005.4
2018-12-09T07:09:31.421Z,1005.37
2018-12-09T07:10:33.135Z,1005.4
2018-12-09T07:11:31.486Z,1005.43
2018-12-09T07:12:31.183Z,1005.41
2018-12-09T07:13:31.591Z,1005.31
2018-12-09T07:14:31.813Z,1005.44
2018-12-09T07:15:31.392Z,1005.43
2018-12-09T07:16:31.238Z,1005.38
2018-12-09T07:17:31.386Z,1005.38
2018-12-09T07:18:31.886Z,1005.44
2018-12-09T07:19:31.973Z,1005.44
2018-12-09T07:20:31.497Z,1005.46
2018-12-09T07:21:31.209Z,1005.58
2018-12-09T07:22:31.450Z,1005.61
2018-12-09T07:23:31.441Z,1005.71
2018-12-09T07:24:31.299Z,1005.54
2018-12-09T07:25:31.262Z,1005.65
2018-12-09T07:26:31.771Z,1005.72
2018-12-09T07:27:31.389Z,1005.75
2018-12-09T07:28:31.628Z,1005.74
2018-12-09T07:29:31.453Z,1005.75
2018-12-09T07:30:31.195Z,1005.82
2018-12-09T07:31:31.685Z,1005.88
2018-12-09T07:32:32.019Z,1005.9
2018-12-09T07:33:31.339Z,1005.95
2018-12-09T07:34:31.341Z,1005.95
2018-12-09T07:35:31.224Z,1005.95
2018-12-09T07:36:31.374Z,1005.99
2018-12-09T07:37:31.513Z,1006.04
2018-12-09T07:38:31.537Z,1006.07
2018-12-09T07:39:31.845Z,1006.1
2018-12-09T07:40:31.784Z,1006.1
2018-12-09T07:41:31.639Z,1006.11
2018-12-09T07:42:31.128Z,1006.06
2018-12-09T07:43:31.197Z,1006.06
2018-12-09T07:44:31.827Z,1006.11
2018-12-09T07:45:31.289Z,1006.19
2018-12-09T07:46:31.599Z,1006.2
2018-12-09T07:47:31.425Z,1006.14
2018-12-09T07:48:31.638Z,1006.16
2018-12-09T07:49:31.241Z,1006.17
2018-12-09T07:50:31.443Z,1006.18
2018-12-09T07:51:31.426Z,1006.17
2018-12-09T07:52:31.137Z,1006.15
2018-12-09T07:53:31.749Z,1006.18
2018-12-09T07:54:31.346Z,1006.21
2018-12-09T07:55:31.378Z,1006.19
2018-12-09T07:56:31.578Z,1006.25
2018-12-09T07:57:31.708Z,1006.25
2018-12-09T07:58:31.321Z,1006.23
2018-12-09T07:59:31.308Z,1006.29
2018-12-09T08:00:31.713Z,1006.28
2018-12-09T08:01:31.707Z,1006.29
2018-12-09T08:02:31.563Z,1006.27
2018-12-09T08:03:31.264Z,1006.21
2018-12-09T08:04:31.421Z,1006.2
2018-12-09T08:05:31.661Z,1006.22
2018-12-09T08:06:31.233Z,1006.29
2018-12-09T08:07:31.234Z,1006.29
2018-12-09T08:08:31.411Z,1006.3
2018-12-09T08:09:31.949Z,1006.26
2018-12-09T08:10:31.308Z,1006.29
2018-12-09T08:11:31.727Z,1006.28
2018-12-09T08:12:31.293Z,1006.33
2018-12-09T08:13:31.353Z,1006.29
2018-12-09T08:14:31.228Z,1006.34
2018-12-09T08:15:32.281Z,1006.33
2018-12-09T08:16:31.281Z,1006.3
2018-12-09T08:17:31.432Z,1006.29
2018-12-09T08:18:31.800Z,1006.33
2018-12-09T08:19:31.635Z,1006.34
2018-12-09T08:20:31.404Z,1006.32
2018-12-09T08:21:31.251Z,1006.31
2018-12-09T08:22:31.937Z,1006.31
2018-12-09T08:23:31.290Z,1006.35
2018-12-09T08:24:31.463Z,1006.35
2018-12-09T08:25:31.177Z,1006.31
2018-12-09T08:26:31.784Z,1006.32
2018-12-09T08:27:31.527Z,1006.34
2018-12-09T08:28:31.263Z,1006.34
2018-12-09T08:29:31.488Z,1006.4
2018-12-09T08:30:31.479Z,1006.36
2018-12-09T08:31:31.510Z,1006.37
2018-12-09T08:32:31.498Z,1006.41
2018-12-09T08:33:31.731Z,1006.37
2018-12-09T08:34:31.669Z,1006.38
2018-12-09T08:35:31.710Z,1006.41
2018-12-09T08:36:31.647Z,1006.41
2018-12-09T08:37:32.120Z,1006.37
2018-12-09T08:38:31.684Z,1006.38
2018-12-09T08:39:31.444Z,1006.39
2018-12-09T08:40:31.752Z,1006.46
2018-12-09T08:41:31.723Z,1006.41
2018-12-09T08:42:31.260Z,1006.44
2018-12-09T08:43:31.424Z,1006.47
2018-12-09T08:44:31.379Z,1006.47
2018-12-09T08:45:31.414Z,1006.5
2018-12-09T08:46:31.656Z,1006.48
2018-12-09T08:47:31.369Z,1006.43
2018-12-09T08:48:31.644Z,1006.43
2018-12-09T08:49:31.300Z,1006.36
2018-12-09T08:50:31.489Z,1006.39
2018-12-09T08:51:31.530Z,1006.42
2018-12-09T08:52:31.950Z,1006.42
2018-12-09T08:53:31.591Z,1006.48
2018-12-09T08:54:31.460Z,1006.47
2018-12-09T08:55:31.181Z,1006.48
2018-12-09T08:56:31.379Z,1006.48
2018-12-09T08:57:31.413Z,1006.45
2018-12-09T08:58:31.286Z,1006.42
2018-12-09T08:59:31.331Z,1006.39
2018-12-09T09:00:31.184Z,1006.41
2018-12-09T09:01:31.424Z,1006.4
2018-12-09T09:02:31.298Z,1006.43
2018-12-09T09:03:31.389Z,1006.42
2018-12-09T09:04:32.545Z,1006.4
2018-12-09T09:05:31.273Z,1006.41
2018-12-09T09:06:31.356Z,1006.37
2018-12-09T09:07:31.235Z,1006.44
2018-12-09T09:08:31.399Z,1006.47
2018-12-09T09:09:31.231Z,1006.41
2018-12-09T09:10:31.301Z,1006.37
2018-12-09T09:11:31.679Z,1006.48
2018-12-09T09:12:31.242Z,1006.42
2018-12-09T09:13:31.323Z,1006.47
2018-12-09T09:14:31.214Z,1006.47
2018-12-09T09:15:31.839Z,1006.49
2018-12-09T09:16:31.398Z,1006.46
2018-12-09T09:17:31.283Z,1006.48
2018-12-09T09:18:31.416Z,1006.43
2018-12-09T09:19:31.282Z,1006.54
2018-12-09T09:20:31.486Z,1006.45
2018-12-09T09:21:31.245Z,1006.43
2018-12-09T09:22:31.225Z,1006.45
2018-12-09T09:23:31.345Z,1006.4
2018-12-09T09:24:31.872Z,1006.43
2018-12-09T09:25:31.483Z,1006.48
2018-12-09T09:26:31.381Z,1006.51
2018-12-09T09:27:31.926Z,1006.45
2018-12-09T09:28:31.249Z,1006.5
2018-12-09T09:29:32.239Z,1006.48
2018-12-09T09:30:31.763Z,1006.45
2018-12-09T09:31:31.264Z,1006.42
2018-12-09T09:32:31.718Z,1006.47
2018-12-09T09:33:31.319Z,1006.49
2018-12-09T09:34:31.359Z,1006.52
2018-12-09T09:35:31.474Z,1006.44
2018-12-09T09:36:31.314Z,1006.43
2018-12-09T09:37:31.703Z,1006.41
2018-12-09T09:38:31.285Z,1006.43
2018-12-09T09:39:31.465Z,1006.47
2018-12-09T09:40:31.675Z,1006.36
2018-12-09T09:41:31.366Z,1006.41
2018-12-09T09:42:31.270Z,1006.37
2018-12-09T09:43:31.419Z,1006.38
2018-12-09T09:44:31.131Z,1006.34
2018-12-09T09:45:31.201Z,1006.35
2018-12-09T09:46:31.318Z,1006.35
2018-12-09T09:47:31.294Z,1006.37
2018-12-09T09:48:31.668Z,1006.35
2018-12-09T09:49:31.662Z,1006.35
2018-12-09T09:50:31.694Z,1006.3
2018-12-09T09:51:31.267Z,1006.27
2018-12-09T09:52:31.439Z,1006.33
2018-12-09T09:53:31.926Z,1006.25
2018-12-09T09:54:31.290Z,1006.3
2018-12-09T09:55:31.745Z,1006.31
2018-12-09T09:56:31.426Z,1006.32
2018-12-09T09:57:31.702Z,1006.36
2018-12-09T09:58:31.326Z,1006.43
2018-12-09T09:59:31.615Z,1006.35
2018-12-09T10:00:31.269Z,1006.45
2018-12-09T10:01:31.806Z,1006.48
2018-12-09T10:02:31.373Z,1006.41
2018-12-09T10:03:31.169Z,1006.39
2018-12-09T10:04:31.719Z,1006.46
2018-12-09T10:05:31.338Z,1006.49
2018-12-09T10:06:31.483Z,1006.43
2018-12-09T10:07:31.154Z,1006.52
2018-12-09T10:08:31.705Z,1006.5
2018-12-09T10:09:31.351Z,1006.58
2018-12-09T10:10:31.579Z,1006.51
2018-12-09T10:11:31.841Z,1006.51
2018-12-09T10:12:31.320Z,1006.47
2018-12-09T10:13:31.394Z,1006.53
2018-12-09T10:14:31.660Z,1006.53
2018-12-09T10:15:31.726Z,1006.51
2018-12-09T10:16:31.199Z,1006.5
2018-12-09T10:17:31.759Z,1006.46
2018-12-09T10:18:31.740Z,1006.61
2018-12-09T10:19:31.375Z,1006.47
2018-12-09T10:20:31.498Z,1006.63
2018-12-09T10:21:31.422Z,1006.55
2018-12-09T10:22:31.325Z,1006.56
2018-12-09T10:23:31.172Z,1006.55
2018-12-09T10:24:31.450Z,1006.51
2018-12-09T10:25:31.526Z,1006.57
2018-12-09T10:26:36.877Z,1006.57
2018-12-09T10:27:31.639Z,1006.57
2018-12-09T10:28:31.592Z,1006.52
2018-12-09T10:29:31.310Z,1006.55
2018-12-09T10:30:31.132Z,1006.52
2018-12-09T10:31:31.238Z,1006.51
2018-12-09T10:32:31.374Z,1006.54
2018-12-09T10:33:31.192Z,1006.5
2018-12-09T10:34:39.062Z,1006.39
2018-12-09T10:35:31.399Z,1006.48
2018-12-09T10:36:31.256Z,1006.46
2018-12-09T10:37:31.715Z,1006.63
2018-12-09T10:38:31.173Z,1006.52
2018-12-09T10:39:31.144Z,1006.46
2018-12-09T10:40:31.166Z,1006.46
2018-12-09T10:41:31.260Z,1006.49
2018-12-09T10:42:31.340Z,1006.47
2018-12-09T10:43:31.328Z,1006.39
2018-12-09T10:44:31.586Z,1006.4
2018-12-09T10:45:31.199Z,1006.4
2018-12-09T10:46:31.318Z,1006.43
2018-12-09T10:47:31.168Z,1006.4
2018-12-09T10:48:31.145Z,1006.47
2018-12-09T10:49:31.384Z,1006.32
2018-12-09T10:50:31.222Z,1006.45
2018-12-09T10:51:31.379Z,1006.41
2018-12-09T10:52:31.451Z,1006.4
2018-12-09T10:53:31.774Z,1006.39
2018-12-09T10:54:31.289Z,1006.39
2018-12-09T10:55:31.333Z,1006.42
2018-12-09T10:56:31.805Z,1006.36
2018-12-09T10:57:31.181Z,1006.39
2018-12-09T10:58:31.327Z,1006.45
2018-12-09T10:59:31.184Z,1006.39
2018-12-09T11:00:31.326Z,1006.38
2018-12-09T11:01:31.627Z,1006.4
2018-12-09T11:02:31.594Z,1006.37
2018-12-09T11:03:31.486Z,1006.44
2018-12-09T11:04:31.254Z,1006.42
2018-12-09T11:05:31.623Z,1006.45
2018-12-09T11:06:31.200Z,1006.38
2018-12-09T11:07:31.347Z,1006.37
2018-12-09T11:08:31.283Z,1006.36
2018-12-09T11:09:31.598Z,1006.4
2018-12-09T11:10:31.577Z,1006.39
2018-12-09T11:11:31.304Z,1006.35
2018-12-09T11:12:31.832Z,1006.32
2018-12-09T11:13:31.674Z,1006.3
2018-12-09T11:14:31.425Z,1006.3
2018-12-09T11:15:31.838Z,1006.3
2018-12-09T11:16:31.802Z,1006.32
2018-12-09T11:17:31.187Z,1006.39
2018-12-09T11:18:31.261Z,1006.34
2018-12-09T11:19:31.761Z,1006.34
2018-12-09T11:20:31.497Z,1006.37
2018-12-09T11:21:31.562Z,1006.32
2018-12-09T11:22:31.302Z,1006.29
2018-12-09T11:23:31.659Z,1006.45
2018-12-09T11:24:31.419Z,1006.29
2018-12-09T11:25:31.338Z,1006.18
2018-12-09T11:26:31.261Z,1006.23
2018-12-09T11:27:31.201Z,1006.23
2018-12-09T11:28:31.431Z,1006.29
2018-12-09T11:29:31.223Z,1006.27
2018-12-09T11:30:31.651Z,1006.28
2018-12-09T11:31:31.289Z,1006.25
2018-12-09T11:32:32.112Z,1006.21
2018-12-09T11:33:31.399Z,1006.13
2018-12-09T11:34:31.726Z,1006.2
2018-12-09T11:35:31.118Z,1006.23
2018-12-09T11:36:31.346Z,1006.13
2018-12-09T11:37:31.838Z,1006.19
2018-12-09T11:38:31.534Z,1006.09
2018-12-09T11:39:31.357Z,1006.15
2018-12-09T11:40:31.267Z,1006.08
2018-12-09T11:41:31.745Z,1006.1
2018-12-09T11:42:31.229Z,1006.12
2018-12-09T11:43:31.544Z,1006.12
2018-12-09T11:44:31.391Z,1006.08
2018-12-09T11:45:31.181Z,1006.02
2018-12-09T11:46:31.461Z,1006
2018-12-09T11:47:31.449Z,1006.09
2018-12-09T11:48:31.714Z,1006.03
2018-12-09T11:49:31.500Z,1006.07
2018-12-09T11:50:31.746Z,1006.01
2018-12-09T11:51:31.459Z,1006.02
2018-12-09T11:52:31.405Z,1006
2018-12-09T11:53:31.256Z,1006
2018-12-09T11:54:31.736Z,1005.91
2018-12-09T11:55:31.576Z,1005.94
2018-12-09T11:56:31.220Z,1005.87
2018-12-09T11:57:31.436Z,1005.97
2018-12-09T11:58:31.298Z,1005.86
2018-12-09T11:59:31.706Z,1005.96
2018-12-09T12:00:31.132Z,1006.02
2018-12-09T12:01:31.295Z,1005.92
2018-12-09T12:02:31.312Z,1005.94
2018-12-09T12:03:31.206Z,1005.81
2018-12-09T12:04:31.580Z,1005.85
2018-12-09T12:05:31.443Z,1005.87
2018-12-09T12:06:31.557Z,1005.84
2018-12-09T12:07:31.241Z,1005.87
2018-12-09T12:08:31.672Z,1005.91